createdAt,value
2023-04-28T00:00:59.679Z,85.58
2023-04-28T00:03:26.135Z,86.42
2023-04-28T00:05:52.879Z,87.07
2023-04-28T00:09:10.595Z,86.93
2023-04-28T00:11:37.813Z,87.75
2023-04-28T00:14:04.996Z,88.32
2023-04-28T00:16:31.412Z,88.04
2023-04-28T00:18:57.806Z,87.58
2023-04-28T00:21:24.271Z,87.19
2023-04-28T00:23:50.700Z,87.28
2023-04-28T00:26:16.968Z,88.18
2023-04-28T00:28:43.306Z,89.12
2023-04-28T00:31:13.722Z,89.18
2023-04-28T00:33:40.385Z,88.85
2023-04-28T00:36:07.803Z,88.61
2023-04-28T00:43:00.641Z,88.54
2023-04-28T00:45:27.132Z,88.73
2023-04-28T00:47:54.918Z,88.57
2023-04-28T00:50:23.282Z,88.41
2023-04-28T00:52:51.190Z,88.75
2023-04-28T00:55:18.603Z,88.76
2023-04-28T00:57:45.917Z,88.60
2023-04-28T01:00:14.371Z,88.68
2023-04-28T01:02:40.975Z,89.12
2023-04-28T01:05:09.055Z,89.61
2023-04-28T01:07:36.562Z,89.47
2023-04-28T01:10:03.223Z,89.22
2023-04-28T01:12:30.036Z,89.01
2023-04-28T01:14:56.312Z,89.01
2023-04-28T01:17:22.982Z,89.44
2023-04-28T01:19:49.300Z,89.17
2023-04-28T01:22:15.942Z,89.37
2023-04-28T01:24:42.430Z,89.35
2023-04-28T01:27:08.747Z,89.29
2023-04-28T01:29:35.055Z,89.40
2023-04-28T01:32:01.380Z,89.75
2023-04-28T01:34:27.747Z,89.91
2023-04-28T01:36:54.204Z,90.08
2023-04-28T01:39:20.670Z,90.24
2023-04-28T01:41:46.948Z,90.00
2023-04-28T01:44:13.468Z,90.05
2023-04-28T01:46:39.784Z,90.15
2023-04-28T01:49:06.050Z,90.39
2023-04-28T01:51:32.497Z,90.11
2023-04-28T01:53:58.835Z,89.96
2023-04-28T01:56:25.241Z,90.57
2023-04-28T01:58:51.716Z,90.40
2023-04-28T02:01:18.217Z,90.27
2023-04-28T02:03:44.790Z,90.33
2023-04-28T02:06:11.425Z,90.50
2023-04-28T02:08:37.771Z,90.17
2023-04-28T02:11:04.204Z,90.02
2023-04-28T02:13:30.572Z,89.93
2023-04-28T02:16:00.804Z,90.35
2023-04-28T02:18:27.066Z,90.42
2023-04-28T02:21:10.583Z,90.30
2023-04-28T02:23:37.392Z,90.58
2023-04-28T02:26:04.008Z,90.64
2023-04-28T02:28:30.742Z,90.63
2023-04-28T02:31:08.112Z,90.62
2023-04-28T02:33:35.448Z,90.75
2023-04-28T02:36:03.051Z,90.63
2023-04-28T02:38:29.592Z,90.89
2023-04-28T02:41:00.401Z,90.99
2023-04-28T02:43:28.090Z,91.18
2023-04-28T02:45:54.459Z,91.26
2023-04-28T02:48:20.899Z,91.24
2023-04-28T02:51:50.327Z,91.51
2023-04-28T02:54:16.927Z,91.55
2023-04-28T02:56:43.270Z,91.42
2023-04-28T02:59:09.586Z,91.34
2023-04-28T03:01:36.806Z,90.93
2023-04-28T03:04:03.371Z,90.88
2023-04-28T03:06:30.944Z,90.88
2023-04-28T03:08:57.455Z,91.07
2023-04-28T03:11:23.731Z,91.62
2023-04-28T03:14:18.532Z,91.56
2023-04-28T03:16:45.194Z,91.55
2023-04-28T03:19:11.577Z,91.82
2023-04-28T03:21:37.818Z,91.75
2023-04-28T03:24:05.570Z,91.70
2023-04-28T03:26:32.513Z,92.12
2023-04-28T03:28:58.838Z,91.92
2023-04-28T03:32:16.507Z,92.03
2023-04-28T03:34:43.090Z,92.16
2023-04-28T03:37:09.574Z,92.16
2023-04-28T03:39:36.838Z,92.28
2023-04-28T03:42:03.384Z,92.28
2023-04-28T03:44:30.017Z,92.17
2023-04-28T03:46:56.585Z,91.88
2023-04-28T03:49:22.938Z,91.58
2023-04-28T03:51:50.656Z,91.45
2023-04-28T03:54:17.323Z,91.20
2023-04-28T03:56:44.037Z,91.11
2023-04-28T03:59:11.624Z,91.00
2023-04-28T04:01:38.095Z,90.85
2023-04-28T04:04:04.802Z,91.26
2023-04-28T04:06:31.928Z,91.15
2023-04-28T04:08:58.274Z,91.28
2023-04-28T04:11:27.173Z,91.24
2023-04-28T04:13:53.815Z,91.03
2023-04-28T04:16:21.993Z,91.11
2023-04-28T04:18:48.610Z,91.23
2023-04-28T04:21:15.268Z,91.03
2023-04-28T04:23:41.528Z,91.00
2023-04-28T04:26:07.923Z,90.67
2023-04-28T04:28:34.397Z,90.66
2023-04-28T04:31:02.115Z,90.48
2023-04-28T04:33:28.426Z,90.41
2023-04-28T04:35:54.792Z,90.00
2023-04-28T04:38:22.532Z,89.69
2023-04-28T04:40:48.926Z,89.57
2023-04-28T04:43:15.333Z,89.27
2023-04-28T04:45:41.581Z,88.82
2023-04-28T04:48:08.661Z,88.33
2023-04-28T04:50:35.082Z,87.83
2023-04-28T04:53:01.446Z,87.29
2023-04-28T04:55:27.905Z,86.12
2023-04-28T04:57:56.548Z,85.51
2023-04-28T05:00:22.909Z,85.14
2023-04-28T05:02:49.586Z,84.72
2023-04-28T05:05:21.424Z,83.71
2023-04-28T05:07:49.151Z,83.28
2023-04-28T05:10:15.502Z,82.90
2023-04-28T05:16:54.384Z,82.34
2023-04-28T05:19:20.811Z,82.26
2023-04-28T05:21:47.805Z,80.75
2023-04-28T05:24:14.750Z,79.98
2023-04-28T05:26:41.268Z,77.56
2023-04-28T05:29:07.685Z,74.07
2023-04-28T05:31:34.364Z,71.11
2023-04-28T05:34:00.790Z,68.96
2023-04-28T05:40:46.769Z,62.02
2023-04-28T05:43:38.075Z,56.08
2023-04-28T05:46:07.758Z,52.59
2023-04-28T05:48:38.668Z,51.21
2023-04-28T05:51:05.283Z,51.16
2023-04-28T05:53:31.554Z,48.75
2023-04-28T05:55:57.911Z,47.48
2023-04-28T05:58:24.309Z,46.41
2023-04-28T06:00:50.676Z,45.95
2023-04-28T06:03:18.349Z,45.55
2023-04-28T06:05:45.241Z,45.23
2023-04-28T06:12:38.906Z,45.91
2023-04-28T06:15:05.976Z,45.44
2023-04-28T06:17:33.106Z,44.28
2023-04-28T06:19:59.655Z,43.11
2023-04-28T06:22:25.970Z,42.99
2023-04-28T06:24:52.543Z,41.77
2023-04-28T06:27:19.118Z,40.83
2023-04-28T06:29:45.629Z,41.10
2023-04-28T06:32:11.907Z,42.31
2023-04-28T06:34:38.250Z,42.02
2023-04-28T06:37:04.600Z,42.91
2023-04-28T06:39:30.987Z,43.42
2023-04-28T06:41:57.465Z,43.54
2023-04-28T06:44:23.915Z,42.95
2023-04-28T06:46:50.308Z,43.74
2023-04-28T06:49:16.646Z,44.54
2023-04-28T06:51:43.174Z,44.79
2023-04-28T06:54:09.516Z,43.25
2023-04-28T06:56:35.860Z,42.56
2023-04-28T06:59:02.573Z,41.89
2023-04-28T07:01:28.851Z,40.57
2023-04-28T07:03:55.572Z,40.55
2023-04-28T07:10:41.661Z,39.24
2023-04-28T07:13:08.518Z,38.46
2023-04-28T07:15:34.961Z,38.22
2023-04-28T07:18:01.747Z,37.48
2023-04-28T07:20:28.037Z,37.27
2023-04-28T07:22:54.558Z,35.73
2023-04-28T07:25:20.920Z,35.20
2023-04-28T07:27:47.325Z,34.55
2023-04-28T07:30:26.645Z,34.99
2023-04-28T07:32:54.738Z,34.83
2023-04-28T07:35:21.544Z,34.14
2023-04-28T07:37:47.818Z,33.85
2023-04-28T07:40:14.165Z,34.42
2023-04-28T07:42:40.562Z,34.14
2023-04-28T07:45:07.474Z,34.26
2023-04-28T07:47:34.451Z,33.04
2023-04-28T07:50:04.407Z,33.35
2023-04-28T07:52:31.779Z,32.92
2023-04-28T07:54:59.091Z,32.94
2023-04-28T07:57:25.971Z,31.93
2023-04-28T07:59:52.322Z,32.23
2023-04-28T08:02:20.030Z,32.55
2023-04-28T08:04:46.683Z,33.93
2023-04-28T08:07:13.712Z,33.82
2023-04-28T08:09:42.414Z,33.78
2023-04-28T08:12:08.725Z,34.46
2023-04-28T08:14:35.393Z,34.94
2023-04-28T08:17:02.242Z,34.99
2023-04-28T08:19:28.669Z,35.70
2023-04-28T08:21:55.262Z,36.72
2023-04-28T08:24:22.014Z,34.54
2023-04-28T08:26:48.586Z,36.19
2023-04-28T08:29:15.342Z,37.03
2023-04-28T08:31:41.902Z,36.28
2023-04-28T08:34:08.313Z,33.90
2023-04-28T08:36:34.656Z,34.22
2023-04-28T08:39:03.402Z,34.75
2023-04-28T08:41:32.398Z,34.69
2023-04-28T08:43:58.706Z,34.91
2023-04-28T08:46:27.038Z,33.59
2023-04-28T08:49:01.107Z,32.06
2023-04-28T08:51:33.473Z,32.34
2023-04-28T08:54:24.941Z,31.78
2023-04-28T08:56:51.461Z,32.14
2023-04-28T08:59:18.743Z,32.41
2023-04-28T09:01:48.887Z,30.72
2023-04-28T09:04:19.843Z,30.49
2023-04-28T09:06:46.895Z,30.13
2023-04-28T09:09:32.479Z,29.35
2023-04-28T09:12:01.906Z,29.96
2023-04-28T09:14:29.868Z,30.24
2023-04-28T09:16:56.901Z,30.77
2023-04-28T09:19:23.696Z,30.99
2023-04-28T09:21:56.782Z,32.45
2023-04-28T09:24:26.704Z,31.07
2023-04-28T09:26:55.341Z,28.51
2023-04-28T09:29:22.175Z,27.06
2023-04-28T09:31:48.849Z,26.55
2023-04-28T09:34:15.544Z,26.44
2023-04-28T09:36:42.264Z,26.00
2023-04-28T09:39:08.593Z,26.55
2023-04-28T09:41:44.735Z,26.33
2023-04-28T09:44:15.322Z,24.82
2023-04-28T09:46:44.289Z,26.25
2023-04-28T09:49:11.832Z,25.84
2023-04-28T09:52:13.411Z,25.24
2023-04-28T09:54:39.950Z,24.69
2023-04-28T09:57:06.592Z,24.19
2023-04-28T10:00:23.880Z,23.45
2023-04-28T10:02:51.119Z,24.68
2023-04-28T10:05:19.187Z,27.81
2023-04-28T10:07:46.025Z,28.97
2023-04-28T10:10:13.962Z,29.89
2023-04-28T10:12:41.035Z,30.55
2023-04-28T10:15:09.754Z,30.36
2023-04-28T10:17:36.490Z,30.79
2023-04-28T10:20:03.153Z,30.41
2023-04-28T10:22:57.655Z,30.14
2023-04-28T10:25:26.498Z,29.34
2023-04-28T10:27:53.646Z,28.97
2023-04-28T10:30:28.196Z,28.79
2023-04-28T10:33:08.559Z,29.19
2023-04-28T10:35:45.976Z,30.49
2023-04-28T10:38:21.165Z,31.00
2023-04-28T10:40:49.180Z,31.32
2023-04-28T10:43:24.603Z,30.98
2023-04-28T10:45:59.519Z,29.69
2023-04-28T10:48:25.762Z,30.01
2023-04-28T10:51:05.596Z,30.77
2023-04-28T10:53:57.601Z,31.44
2023-04-28T10:56:26.189Z,30.70
2023-04-28T10:58:54.218Z,29.72
2023-04-28T11:01:20.610Z,28.74
2023-04-28T11:03:59.782Z,28.04
2023-04-28T11:06:33.561Z,27.13
2023-04-28T11:09:19.313Z,25.98
2023-04-28T11:12:10.068Z,25.52
2023-04-28T11:14:39.694Z,25.93
2023-04-28T11:17:12.527Z,26.18
2023-04-28T11:19:40.162Z,26.86
2023-04-28T11:22:21.064Z,26.76
2023-04-28T11:24:59.113Z,28.18
2023-04-28T11:27:27.081Z,29.07
2023-04-28T11:29:53.510Z,28.81
2023-04-28T11:32:28.092Z,28.53
2023-04-28T11:34:54.780Z,28.48
2023-04-28T11:37:22.195Z,29.10
2023-04-28T11:40:22.659Z,29.15
2023-04-28T11:42:49.062Z,30.45
2023-04-28T11:45:15.416Z,30.63
2023-04-28T11:47:42.000Z,30.67
2023-04-28T11:50:08.772Z,30.91
2023-04-28T11:52:35.376Z,29.56
2023-04-28T11:55:02.651Z,28.39
2023-04-28T11:57:29.107Z,28.91
2023-04-28T12:00:18.697Z,28.90
2023-04-28T12:02:45.772Z,28.59
2023-04-28T12:05:12.516Z,27.27
2023-04-28T12:07:43.557Z,27.62
2023-04-28T12:10:12.498Z,27.48
2023-04-28T12:12:49.841Z,28.00
2023-04-28T12:15:18.186Z,28.74
2023-04-28T12:17:47.630Z,27.62
2023-04-28T12:20:34.043Z,26.19
2023-04-28T12:23:00.507Z,24.10
2023-04-28T12:25:26.933Z,23.09
2023-04-28T12:28:04.498Z,22.80
2023-04-28T12:30:40.929Z,21.96
2023-04-28T12:33:26.781Z,22.54
2023-04-28T12:35:55.466Z,21.96
2023-04-28T12:38:22.779Z,22.96
2023-04-28T12:40:49.135Z,23.21
2023-04-28T12:43:15.448Z,22.85
2023-04-28T12:45:42.226Z,23.03
2023-04-28T12:48:08.617Z,22.03
2023-04-28T12:50:35.056Z,21.37
2023-04-28T12:53:56.918Z,20.61
2023-04-28T12:56:23.178Z,21.04
2023-04-28T12:58:49.558Z,20.29
2023-04-28T13:01:16.010Z,20.87
2023-04-28T13:03:43.644Z,20.82
2023-04-28T13:06:10.503Z,21.49
2023-04-28T13:08:36.832Z,21.95
2023-04-28T13:11:07.345Z,22.99
2023-04-28T13:13:39.384Z,22.51
2023-04-28T13:16:05.849Z,23.00
2023-04-28T13:18:32.193Z,22.77
2023-04-28T13:20:58.997Z,22.77
2023-04-28T13:23:25.348Z,23.89
2023-04-28T13:26:33.481Z,22.94
2023-04-28T13:29:01.502Z,23.91
2023-04-28T13:31:29.662Z,23.30
2023-04-28T13:34:01.440Z,22.90
2023-04-28T13:36:32.430Z,22.41
2023-04-28T13:39:01.592Z,21.94
2023-04-28T13:41:28.957Z,21.80
2023-04-28T13:43:56.780Z,22.56
2023-04-28T13:46:23.264Z,23.66
2023-04-28T13:48:49.969Z,23.99
2023-04-28T13:51:16.248Z,24.33
2023-04-28T13:53:44.833Z,24.58
2023-04-28T13:56:12.666Z,24.07
2023-04-28T13:58:39.012Z,25.50
2023-04-28T14:01:05.796Z,25.31
2023-04-28T14:03:32.180Z,25.24
2023-04-28T14:05:58.813Z,24.69
2023-04-28T14:08:26.473Z,23.76
2023-04-28T14:10:54.252Z,23.21
2023-04-28T14:13:20.667Z,23.73
2023-04-28T14:15:57.805Z,23.83
2023-04-28T14:18:26.273Z,25.11
2023-04-28T14:20:53.744Z,24.83
2023-04-28T14:23:22.953Z,23.40
2023-04-28T14:25:49.704Z,23.01
2023-04-28T14:28:16.110Z,21.90
2023-04-28T14:30:42.531Z,21.91
2023-04-28T14:33:08.955Z,22.57
2023-04-28T14:35:35.238Z,23.24
2023-04-28T14:38:02.887Z,23.29
2023-04-28T14:40:29.255Z,24.25
2023-04-28T14:42:55.806Z,25.15
2023-04-28T14:45:22.248Z,24.98
2023-04-28T14:47:50.903Z,26.39
2023-04-28T14:50:17.915Z,22.35
2023-04-28T14:52:44.472Z,21.93
2023-04-28T14:55:10.902Z,21.91
2023-04-28T14:57:37.472Z,21.80
2023-04-28T15:00:06.670Z,23.04
2023-04-28T15:02:33.724Z,23.54
2023-04-28T15:05:00.249Z,22.63
2023-04-28T15:07:30.877Z,21.36
2023-04-28T15:09:58.743Z,21.18
2023-04-28T15:12:25.828Z,21.24
2023-04-28T15:14:53.134Z,21.01
2023-04-28T15:17:20.581Z,20.77
2023-04-28T15:19:47.124Z,20.25
2023-04-28T15:22:15.738Z,21.05
2023-04-28T15:24:42.104Z,22.89
2023-04-28T15:27:08.565Z,24.31
2023-04-28T15:29:34.926Z,23.71
2023-04-28T15:32:01.516Z,22.18
2023-04-28T15:34:28.074Z,21.33
2023-04-28T15:36:54.517Z,22.37
2023-04-28T15:39:20.846Z,23.44
2023-04-28T15:41:47.200Z,22.02
2023-04-28T15:44:15.442Z,21.96
2023-04-28T15:46:43.990Z,21.36
2023-04-28T15:49:11.225Z,20.86
2023-04-28T15:51:37.890Z,20.57
2023-04-28T15:54:10.419Z,20.35
2023-04-28T15:56:36.784Z,19.82
2023-04-28T15:59:03.691Z,19.83
2023-04-28T16:01:30.019Z,19.52
2023-04-28T16:03:56.557Z,20.48
2023-04-28T16:06:23.229Z,23.67
2023-04-28T16:08:49.528Z,26.31
2023-04-28T16:11:18.748Z,27.57
2023-04-28T16:13:45.085Z,28.57
2023-04-28T16:16:12.158Z,27.98
2023-04-28T16:18:38.828Z,27.51
2023-04-28T16:21:05.193Z,28.76
2023-04-28T16:23:31.498Z,29.25
2023-04-28T16:25:57.834Z,29.23
2023-04-28T16:28:26.511Z,29.44
2023-04-28T16:30:52.792Z,29.68
2023-04-28T16:33:19.034Z,29.87
2023-04-28T16:35:53.211Z,30.48
2023-04-28T16:38:20.079Z,31.23
2023-04-28T16:40:46.388Z,32.25
2023-04-28T16:43:12.746Z,32.99
2023-04-28T16:45:39.489Z,33.33
2023-04-28T16:48:05.897Z,33.68
2023-04-28T16:50:32.957Z,33.74
2023-04-28T16:52:59.213Z,34.02
2023-04-28T16:55:26.672Z,34.24
2023-04-28T16:57:53.049Z,34.29
2023-04-28T17:00:19.931Z,34.84
2023-04-28T17:02:46.419Z,35.17
2023-04-28T17:05:12.879Z,35.15
2023-04-28T17:07:39.654Z,35.03
2023-04-28T17:10:06.523Z,35.45
2023-04-28T17:12:32.843Z,35.68
2023-04-28T17:14:59.174Z,35.85
2023-04-28T17:17:25.434Z,36.26
2023-04-28T17:19:52.156Z,36.68
2023-04-28T17:22:18.595Z,36.73
2023-04-28T17:24:44.887Z,36.94
2023-04-28T17:27:11.374Z,37.17
2023-04-28T17:29:37.759Z,37.22
2023-04-28T17:32:04.287Z,37.87
2023-04-28T17:34:30.808Z,39.24
2023-04-28T17:36:57.091Z,39.38
2023-04-28T17:39:23.362Z,39.32
2023-04-28T17:41:49.856Z,39.95
2023-04-28T17:44:16.063Z,40.22
2023-04-28T17:51:08.838Z,41.08
2023-04-28T17:53:56.359Z,41.08
2023-04-28T17:56:23.014Z,41.38
2023-04-28T17:58:49.703Z,41.77
2023-04-28T18:01:16.496Z,42.01
2023-04-28T18:03:42.996Z,42.35
2023-04-28T18:06:09.695Z,43.60
2023-04-28T18:09:01.637Z,43.78
2023-04-28T18:11:27.903Z,43.51
2023-04-28T18:13:54.717Z,44.05
2023-04-28T18:16:21.135Z,44.13
2023-04-28T18:18:47.984Z,44.65
2023-04-28T18:21:14.239Z,44.64
2023-04-28T18:23:40.670Z,46.24
2023-04-28T18:26:07.123Z,47.95
2023-04-28T18:28:33.432Z,48.82
2023-04-28T18:31:06.516Z,49.06
2023-04-28T18:33:32.765Z,49.12
2023-04-28T18:36:00.206Z,48.09
2023-04-28T18:39:05.586Z,48.53
2023-04-28T18:41:33.845Z,50.21
2023-04-28T18:44:00.863Z,50.86
2023-04-28T18:46:28.833Z,49.84
2023-04-28T18:48:55.824Z,51.36
2023-04-28T18:51:22.224Z,51.90
2023-04-28T18:53:48.692Z,49.94
2023-04-28T18:56:15.417Z,49.63
2023-04-28T18:58:41.956Z,50.31
2023-04-28T19:01:15.897Z,50.91
2023-04-28T19:03:44.045Z,50.63
2023-04-28T19:06:21.545Z,50.17
2023-04-28T19:08:47.867Z,50.05
2023-04-28T19:11:14.660Z,51.29
2023-04-28T19:13:43.772Z,50.31
2023-04-28T19:16:10.141Z,50.28
2023-04-28T19:18:38.392Z,49.66
2023-04-28T19:21:05.489Z,49.66
2023-04-28T19:23:32.032Z,49.93
2023-04-28T19:25:59.247Z,49.76
2023-04-28T19:28:26.067Z,49.65
2023-04-28T19:30:53.386Z,49.68
2023-04-28T19:33:20.210Z,49.68
2023-04-28T19:35:46.696Z,49.56
2023-04-28T19:38:13.469Z,49.62
2023-04-28T19:40:39.825Z,49.73
2023-04-28T19:43:06.147Z,49.78
2023-04-28T19:45:35.521Z,50.11
2023-04-28T19:48:02.121Z,50.39
2023-04-28T19:50:28.563Z,50.44
2023-04-28T19:52:54.966Z,50.54
2023-04-28T19:55:23.139Z,50.97
2023-04-28T19:57:50.019Z,50.78
2023-04-28T20:00:16.473Z,50.97
2023-04-28T20:02:44.057Z,51.14
2023-04-28T20:05:10.942Z,51.07
2023-04-28T20:07:38.967Z,51.35
2023-04-28T20:10:05.883Z,51.54
2023-04-28T20:12:32.448Z,51.53
2023-04-28T20:14:59.058Z,52.06
2023-04-28T20:17:25.437Z,51.90
2023-04-28T20:19:52.054Z,52.27
2023-04-28T20:22:18.513Z,52.23
2023-04-28T20:24:44.806Z,52.22
2023-04-28T20:27:29.928Z,52.21
2023-04-28T20:29:56.375Z,52.58
2023-04-28T20:32:22.673Z,52.67
2023-04-28T20:34:49.018Z,52.60
2023-04-28T20:37:15.330Z,52.77
2023-04-28T20:39:41.747Z,52.92
2023-04-28T20:42:08.458Z,53.09
2023-04-28T20:44:35.171Z,53.14
2023-04-28T20:47:01.739Z,53.31
2023-04-28T20:49:28.268Z,53.36
2023-04-28T20:52:01.743Z,53.31
2023-04-28T20:54:28.064Z,53.74
2023-04-28T20:56:54.521Z,53.46
2023-04-28T20:59:21.253Z,53.50
2023-04-28T21:01:48.062Z,53.77
2023-04-28T21:04:14.551Z,53.84
2023-04-28T21:06:41.110Z,53.75
2023-04-28T21:09:07.420Z,53.55
2023-04-28T21:11:33.706Z,53.68
2023-04-28T21:14:00.541Z,54.07
2023-04-28T21:16:27.640Z,54.16
2023-04-28T21:18:54.082Z,54.37
2023-04-28T21:21:22.074Z,54.35
2023-04-28T21:23:48.759Z,54.21
2023-04-28T21:26:15.094Z,54.52
2023-04-28T21:28:41.466Z,54.51
2023-04-28T21:31:07.784Z,54.53
2023-04-28T21:33:34.135Z,54.73
2023-04-28T21:36:07.308Z,54.98
2023-04-28T21:38:34.019Z,55.14
2023-04-28T21:41:00.483Z,55.52
2023-04-28T21:43:26.763Z,55.43
2023-04-28T21:45:53.201Z,55.54
2023-04-28T21:48:19.520Z,55.50
2023-04-28T21:50:46.687Z,55.86
2023-04-28T21:53:13.158Z,56.02
2023-04-28T21:55:39.526Z,56.12
2023-04-28T21:58:05.768Z,56.46
2023-04-28T22:00:39.461Z,56.45
2023-04-28T22:03:06.173Z,56.57
2023-04-28T22:05:33.625Z,56.79
2023-04-28T22:08:00.908Z,56.88
2023-04-28T22:10:27.402Z,57.21
2023-04-28T22:12:53.668Z,57.23
2023-04-28T22:15:55.593Z,57.40
2023-04-28T22:18:22.027Z,57.79
2023-04-28T22:20:49.363Z,57.91
2023-04-28T22:23:15.721Z,58.03
2023-04-28T22:25:42.739Z,58.19
2023-04-28T22:28:09.042Z,57.94
2023-04-28T22:30:35.413Z,58.16
2023-04-28T22:37:18.934Z,58.78
2023-04-28T22:39:45.229Z,59.08
2023-04-28T22:42:11.681Z,59.38
2023-04-28T22:44:37.940Z,59.27
2023-04-28T22:47:04.412Z,59.12
2023-04-28T22:49:30.746Z,59.16
2023-04-28T22:51:58.012Z,59.51
2023-04-28T22:54:24.447Z,59.82
2023-04-28T22:56:53.189Z,59.75
2023-04-28T22:59:19.955Z,59.78
2023-04-28T23:01:46.312Z,59.78
2023-04-28T23:04:12.773Z,60.19
2023-04-28T23:06:39.292Z,60.16
2023-04-28T23:09:06.393Z,60.22
2023-04-28T23:11:32.644Z,60.21
2023-04-28T23:13:58.930Z,60.27
2023-04-28T23:16:25.274Z,60.53
2023-04-28T23:18:51.560Z,60.80
2023-04-28T23:21:17.926Z,61.08
2023-04-28T23:23:44.209Z,61.34
2023-04-28T23:26:10.535Z,62.16
2023-04-28T23:28:36.918Z,61.65
2023-04-28T23:31:04.390Z,61.78
2023-04-28T23:33:30.730Z,61.74
2023-04-28T23:35:57.030Z,61.97
2023-04-28T23:38:24.701Z,62.25
2023-04-28T23:40:50.976Z,62.41
2023-04-28T23:43:17.307Z,62.45
2023-04-28T23:45:43.705Z,62.46
2023-04-28T23:48:10.443Z,62.49
2023-04-28T23:50:36.839Z,62.67
2023-04-28T23:53:04.820Z,62.75
2023-04-28T23:55:31.052Z,62.76
2023-04-28T23:57:57.339Z,62.39
